sensor_id;sensor_type;location;lat;lon;timestamp;pressure;altitude;pressure_sealevel;temperature;humidity
77288;BME280;66345;42.694;23.346;2023-05-14T00:01:12;95939.81;;;13.72;53.30
77288;BME280;66345;42.694;23.346;2023-05-14T00:03:38;95941.09;;;13.76;53.18
77288;BME280;66345;42.694;23.346;2023-05-14T00:06:05;95934.94;;;13.82;52.56
77288;BME280;66345;42.694;23.346;2023-05-14T00:08:32;95944.78;;;13.81;52.58
77288;BME280;66345;42.694;23.346;2023-05-14T00:10:58;95936.97;;;13.80;52.70
77288;BME280;66345;42.694;23.346;2023-05-14T00:13:24;95936.59;;;13.83;52.85
77288;BME280;66345;42.694;23.346;2023-05-14T00:15:50;95922.41;;;13.76;52.38
77288;BME280;66345;42.694;23.346;2023-05-14T00:18:15;95931.28;;;13.83;52.61
77288;BME280;66345;42.694;23.346;2023-05-14T00:20:42;95931.44;;;13.81;52.80
77288;BME280;66345;42.694;23.346;2023-05-14T00:23:08;95927.13;;;13.80;52.28
77288;BME280;66345;42.694;23.346;2023-05-14T00:25:33;95925.09;;;13.76;52.33
77288;BME280;66345;42.694;23.346;2023-05-14T00:27:59;95917.06;;;13.76;52.42
77288;BME280;66345;42.694;23.346;2023-05-14T00:30:26;95917.91;;;13.76;52.39
77288;BME280;66345;42.694;23.346;2023-05-14T00:32:51;95911.91;;;13.74;52.11
77288;BME280;66345;42.694;23.346;2023-05-14T00:35:16;95916.06;;;13.77;52.46
77288;BME280;66345;42.694;23.346;2023-05-14T00:37:42;95910.38;;;13.93;52.19
77288;BME280;66345;42.694;23.346;2023-05-14T00:40:08;95908.09;;;13.90;51.81
77288;BME280;66345;42.694;23.346;2023-05-14T00:42:35;95912.19;;;13.86;51.96
77288;BME280;66345;42.694;23.346;2023-05-14T00:45:02;95912.41;;;13.84;51.99
77288;BME280;66345;42.694;23.346;2023-05-14T00:47:28;95908.47;;;13.80;52.06
77288;BME280;66345;42.694;23.346;2023-05-14T00:49:53;95899.63;;;13.80;52.11
77288;BME280;66345;42.694;23.346;2023-05-14T00:52:20;95914.81;;;13.79;52.01
77288;BME280;66345;42.694;23.346;2023-05-14T00:54:46;95903.50;;;13.71;52.35
77288;BME280;66345;42.694;23.346;2023-05-14T00:57:14;95894.66;;;13.64;52.20
77288;BME280;66345;42.694;23.346;2023-05-14T00:59:39;95897.31;;;13.64;52.43
77288;BME280;66345;42.694;23.346;2023-05-14T01:02:09;95890.34;;;13.63;52.03
77288;BME280;66345;42.694;23.346;2023-05-14T01:04:35;95886.19;;;13.53;52.05
77288;BME280;66345;42.694;23.346;2023-05-14T01:07:22;95897.47;;;13.55;52.24
77288;BME280;66345;42.694;23.346;2023-05-14T01:10:16;95899.13;;;13.56;52.16
77288;BME280;66345;42.694;23.346;2023-05-14T01:13:09;95898.25;;;13.49;52.16
77288;BME280;66345;42.694;23.346;2023-05-14T01:15:38;95887.59;;;13.49;52.11
77288;BME280;66345;42.694;23.346;2023-05-14T01:18:09;95885.94;;;13.48;51.46
77288;BME280;66345;42.694;23.346;2023-05-14T01:20:35;95890.00;;;13.44;51.86
77288;BME280;66345;42.694;23.346;2023-05-14T01:23:01;95891.66;;;13.39;51.49
77288;BME280;66345;42.694;23.346;2023-05-14T01:25:29;95909.91;;;13.42;51.30
77288;BME280;66345;42.694;23.346;2023-05-14T01:30:37;95926.66;;;13.36;51.88
77288;BME280;66345;42.694;23.346;2023-05-14T01:33:13;95923.19;;;13.35;51.67
77288;BME280;66345;42.694;23.346;2023-05-14T01:35:40;95934.03;;;13.33;51.46
77288;BME280;66345;42.694;23.346;2023-05-14T01:38:09;95929.53;;;13.34;51.65
77288;BME280;66345;42.694;23.346;2023-05-14T01:40:36;95931.38;;;13.33;50.66
77288;BME280;66345;42.694;23.346;2023-05-14T01:43:02;95929.50;;;13.27;51.65
77288;BME280;66345;42.694;23.346;2023-05-14T01:45:29;95919.44;;;13.23;51.53
77288;BME280;66345;42.694;23.346;2023-05-14T01:47:55;95922.09;;;13.23;51.60
77288;BME280;66345;42.694;23.346;2023-05-14T01:50:21;95911.66;;;13.28;51.35
77288;BME280;66345;42.694;23.346;2023-05-14T01:52:46;95916.59;;;13.31;51.43
77288;BME280;66345;42.694;23.346;2023-05-14T01:55:13;95912.69;;;13.27;51.23
77288;BME280;66345;42.694;23.346;2023-05-14T01:57:41;95918.53;;;13.16;51.64
77288;BME280;66345;42.694;23.346;2023-05-14T02:00:06;95919.50;;;13.15;51.76
77288;BME280;66345;42.694;23.346;2023-05-14T02:02:33;95925.38;;;13.03;52.23
77288;BME280;66345;42.694;23.346;2023-05-14T02:04:58;95927.03;;;13.04;52.35
77288;BME280;66345;42.694;23.346;2023-05-14T02:07:24;95923.63;;;12.89;53.28
77288;BME280;66345;42.694;23.346;2023-05-14T02:09:49;95922.38;;;12.85;53.03
77288;BME280;66345;42.694;23.346;2023-05-14T02:12:16;95921.97;;;12.88;53.49
77288;BME280;66345;42.694;23.346;2023-05-14T02:14:42;95924.16;;;12.78;53.75
77288;BME280;66345;42.694;23.346;2023-05-14T02:17:08;95918.44;;;12.81;53.98
77288;BME280;66345;42.694;23.346;2023-05-14T02:19:35;95922.31;;;12.78;53.90
77288;BME280;66345;42.694;23.346;2023-05-14T02:22:00;95920.69;;;12.77;53.32
77288;BME280;66345;42.694;23.346;2023-05-14T02:24:26;95922.31;;;12.78;54.22
77288;BME280;66345;42.694;23.346;2023-05-14T02:26:51;95940.13;;;12.78;54.16
77288;BME280;66345;42.694;23.346;2023-05-14T02:29:17;95929.28;;;12.80;54.09
77288;BME280;66345;42.694;23.346;2023-05-14T02:31:42;95938.31;;;12.78;55.34
77288;BME280;66345;42.694;23.346;2023-05-14T02:34:08;95933.03;;;12.64;55.77
77288;BME280;66345;42.694;23.346;2023-05-14T02:36:35;95943.03;;;12.62;55.92
77288;BME280;66345;42.694;23.346;2023-05-14T02:39:00;95938.97;;;12.44;56.54
77288;BME280;66345;42.694;23.346;2023-05-14T02:41:26;95941.91;;;12.49;56.83
77288;BME280;66345;42.694;23.346;2023-05-14T02:43:52;95947.44;;;12.48;56.09
77288;BME280;66345;42.694;23.346;2023-05-14T02:46:18;95952.09;;;12.46;56.04
77288;BME280;66345;42.694;23.346;2023-05-14T02:48:43;95952.34;;;12.51;56.13
77288;BME280;66345;42.694;23.346;2023-05-14T02:51:09;95953.56;;;12.48;55.85
77288;BME280;66345;42.694;23.346;2023-05-14T02:53:35;95955.22;;;12.49;55.81
77288;BME280;66345;42.694;23.346;2023-05-14T02:56:01;95955.09;;;12.58;55.76
77288;BME280;66345;42.694;23.346;2023-05-14T02:58:27;95944.84;;;12.55;55.71
77288;BME280;66345;42.694;23.346;2023-05-14T03:00:54;95949.50;;;12.53;55.92
77288;BME280;66345;42.694;23.346;2023-05-14T03:03:19;95964.72;;;12.59;55.72
77288;BME280;66345;42.694;23.346;2023-05-14T03:05:45;95948.13;;;12.57;55.71
77288;BME280;66345;42.694;23.346;2023-05-14T03:08:12;95951.97;;;12.54;55.73
77288;BME280;66345;42.694;23.346;2023-05-14T03:10:37;95962.53;;;12.62;55.70
77288;BME280;66345;42.694;23.346;2023-05-14T03:13:03;95962.25;;;12.57;55.99
77288;BME280;66345;42.694;23.346;2023-05-14T03:15:28;95935.72;;;12.64;55.54
77288;BME280;66345;42.694;23.346;2023-05-14T03:17:55;95929.56;;;12.63;55.71
77288;BME280;66345;42.694;23.346;2023-05-14T03:20:22;95921.72;;;12.62;55.43
77288;BME280;66345;42.694;23.346;2023-05-14T03:22:48;95928.00;;;12.54;55.39
77288;BME280;66345;42.694;23.346;2023-05-14T03:25:13;95933.03;;;12.64;56.09
77288;BME280;66345;42.694;23.346;2023-05-14T03:27:40;95931.69;;;12.74;55.48
77288;BME280;66345;42.694;23.346;2023-05-14T03:30:06;95932.03;;;12.65;55.99
77288;BME280;66345;42.694;23.346;2023-05-14T03:32:32;95935.13;;;12.68;56.06
77288;BME280;66345;42.694;23.346;2023-05-14T03:34:57;95948.06;;;12.71;56.02
77288;BME280;66345;42.694;23.346;2023-05-14T03:37:23;95955.41;;;12.69;56.56
77288;BME280;66345;42.694;23.346;2023-05-14T03:39:48;95953.63;;;12.76;57.29
77288;BME280;66345;42.694;23.346;2023-05-14T03:42:14;95961.50;;;12.63;58.25
77288;BME280;66345;42.694;23.346;2023-05-14T03:44:40;95950.25;;;12.46;59.23
77288;BME280;66345;42.694;23.346;2023-05-14T03:47:06;95948.09;;;12.35;60.08
77288;BME280;66345;42.694;23.346;2023-05-14T03:49:32;95941.38;;;12.18;60.60
77288;BME280;66345;42.694;23.346;2023-05-14T03:51:57;95944.94;;;12.25;61.38
77288;BME280;66345;42.694;23.346;2023-05-14T03:54:24;95947.69;;;12.17;61.12
77288;BME280;66345;42.694;23.346;2023-05-14T03:56:50;95945.59;;;12.12;61.66
77288;BME280;66345;42.694;23.346;2023-05-14T03:59:15;95952.44;;;12.21;61.10
77288;BME280;66345;42.694;23.346;2023-05-14T04:01:41;95946.78;;;12.25;61.09
77288;BME280;66345;42.694;23.346;2023-05-14T04:04:06;95934.53;;;12.30;60.75
77288;BME280;66345;42.694;23.346;2023-05-14T04:06:32;95945.81;;;12.32;60.47
77288;BME280;66345;42.694;23.346;2023-05-14T04:08:57;95959.13;;;12.32;60.91
77288;BME280;66345;42.694;23.346;2023-05-14T04:11:23;95959.69;;;12.28;60.80
77288;BME280;66345;42.694;23.346;2023-05-14T04:13:49;95952.06;;;12.39;60.44
77288;BME280;66345;42.694;23.346;2023-05-14T04:30:50;95974.19;;;12.25;60.11
77288;BME280;66345;42.694;23.346;2023-05-14T04:37:00;95991.81;;;12.26;59.98
77288;BME280;66345;42.694;23.346;2023-05-14T04:39:31;95987.41;;;12.18;60.07
77288;BME280;66345;42.694;23.346;2023-05-14T04:41:59;95996.56;;;12.16;60.00
77288;BME280;66345;42.694;23.346;2023-05-14T04:44:38;96000.72;;;12.18;59.48
77288;BME280;66345;42.694;23.346;2023-05-14T04:47:09;95995.84;;;12.22;60.67
77288;BME280;66345;42.694;23.346;2023-05-14T04:49:34;95997.38;;;12.31;59.87
77288;BME280;66345;42.694;23.346;2023-05-14T04:52:00;96007.25;;;12.52;60.17
77288;BME280;66345;42.694;23.346;2023-05-14T04:54:26;96008.81;;;12.46;60.34
77288;BME280;66345;42.694;23.346;2023-05-14T04:56:51;96016.06;;;12.53;59.63
77288;BME280;66345;42.694;23.346;2023-05-14T04:59:16;96016.16;;;12.44;60.08
77288;BME280;66345;42.694;23.346;2023-05-14T05:01:42;96021.09;;;12.26;61.40
77288;BME280;66345;42.694;23.346;2023-05-14T05:04:07;96032.03;;;12.02;63.06
77288;BME280;66345;42.694;23.346;2023-05-14T05:06:46;96038.72;;;11.98;64.56
77288;BME280;66345;42.694;23.346;2023-05-14T05:09:12;96044.91;;;11.75;64.20
77288;BME280;66345;42.694;23.346;2023-05-14T05:11:38;96046.53;;;11.61;64.98
77288;BME280;66345;42.694;23.346;2023-05-14T05:14:29;96061.34;;;11.56;68.34
77288;BME280;66345;42.694;23.346;2023-05-14T05:17:37;96064.25;;;11.31;67.10
77288;BME280;66345;42.694;23.346;2023-05-14T05:20:06;96063.09;;;11.11;66.94
77288;BME280;66345;42.694;23.346;2023-05-14T05:22:54;96055.94;;;11.11;68.84
77288;BME280;66345;42.694;23.346;2023-05-14T05:25:30;96072.41;;;11.07;69.49
77288;BME280;66345;42.694;23.346;2023-05-14T05:27:56;96068.50;;;10.95;71.44
77288;BME280;66345;42.694;23.346;2023-05-14T05:30:22;96074.94;;;11.00;72.88
77288;BME280;66345;42.694;23.346;2023-05-14T05:32:47;96078.84;;;10.90;72.80
77288;BME280;66345;42.694;23.346;2023-05-14T05:35:15;96085.91;;;10.74;74.38
77288;BME280;66345;42.694;23.346;2023-05-14T05:37:41;96085.78;;;10.68;73.69
77288;BME280;66345;42.694;23.346;2023-05-14T05:40:07;96091.94;;;10.60;74.45
77288;BME280;66345;42.694;23.346;2023-05-14T05:42:34;96088.34;;;10.53;77.01
77288;BME280;66345;42.694;23.346;2023-05-14T05:45:02;96096.03;;;10.40;76.79
77288;BME280;66345;42.694;23.346;2023-05-14T05:47:27;96088.41;;;10.37;78.39
77288;BME280;66345;42.694;23.346;2023-05-14T05:49:53;96095.88;;;10.33;79.21
77288;BME280;66345;42.694;23.346;2023-05-14T05:52:25;96083.06;;;10.45;78.56
77288;BME280;66345;42.694;23.346;2023-05-14T05:54:51;96103.97;;;10.40;79.02
77288;BME280;66345;42.694;23.346;2023-05-14T05:57:19;96094.06;;;10.34;79.15
77288;BME280;66345;42.694;23.346;2023-05-14T06:00:06;96087.31;;;10.23;80.45
77288;BME280;66345;42.694;23.346;2023-05-14T06:02:52;96077.84;;;10.20;81.52
77288;BME280;66345;42.694;23.346;2023-05-14T06:05:24;96074.91;;;10.07;82.26
77288;BME280;66345;42.694;23.346;2023-05-14T06:07:50;96076.22;;;10.03;82.39
77288;BME280;66345;42.694;23.346;2023-05-14T06:10:19;96079.72;;;9.95;81.22
77288;BME280;66345;42.694;23.346;2023-05-14T06:12:58;96092.84;;;9.89;81.87
77288;BME280;66345;42.694;23.346;2023-05-14T06:15:26;96083.22;;;9.88;81.66
77288;BME280;66345;42.694;23.346;2023-05-14T06:17:52;96089.88;;;9.84;81.88
77288;BME280;66345;42.694;23.346;2023-05-14T06:20:18;96085.91;;;9.80;83.58
77288;BME280;66345;42.694;23.346;2023-05-14T06:22:43;96080.44;;;9.81;82.75
77288;BME280;66345;42.694;23.346;2023-05-14T06:25:09;96080.09;;;9.84;83.75
77288;BME280;66345;42.694;23.346;2023-05-14T06:27:35;96069.47;;;9.92;81.98
77288;BME280;66345;42.694;23.346;2023-05-14T06:30:00;96076.41;;;10.01;83.22
77288;BME280;66345;42.694;23.346;2023-05-14T06:35:17;96081.00;;;10.16;83.80
77288;BME280;66345;42.694;23.346;2023-05-14T06:37:44;96094.25;;;10.24;85.45
77288;BME280;66345;42.694;23.346;2023-05-14T06:40:10;96094.75;;;10.11;83.51
77288;BME280;66345;42.694;23.346;2023-05-14T06:42:35;96088.50;;;9.96;83.80
77288;BME280;66345;42.694;23.346;2023-05-14T06:45:01;96084.88;;;9.89;85.38
77288;BME280;66345;42.694;23.346;2023-05-14T06:47:27;96081.72;;;9.93;87.12
77288;BME280;66345;42.694;23.346;2023-05-14T06:49:53;96077.56;;;10.07;87.48
77288;BME280;66345;42.694;23.346;2023-05-14T06:52:19;96083.56;;;9.93;86.74
77288;BME280;66345;42.694;23.346;2023-05-14T06:54:45;96071.28;;;10.00;88.10
77288;BME280;66345;42.694;23.346;2023-05-14T06:57:10;96056.72;;;9.88;87.55
77288;BME280;66345;42.694;23.346;2023-05-14T06:59:36;96058.22;;;9.90;87.96
77288;BME280;66345;42.694;23.346;2023-05-14T07:02:01;96058.16;;;10.07;89.17
77288;BME280;66345;42.694;23.346;2023-05-14T07:04:27;96064.59;;;10.12;87.95
77288;BME280;66345;42.694;23.346;2023-05-14T07:06:54;96081.78;;;10.33;87.79
77288;BME280;66345;42.694;23.346;2023-05-14T07:09:19;96061.47;;;10.48;89.25
77288;BME280;66345;42.694;23.346;2023-05-14T07:11:46;96063.00;;;10.42;87.58
77288;BME280;66345;42.694;23.346;2023-05-14T07:14:11;96069.16;;;10.35;86.14
77288;BME280;66345;42.694;23.346;2023-05-14T07:16:37;96081.97;;;10.62;86.55
77288;BME280;66345;42.694;23.346;2023-05-14T07:19:03;96093.25;;;10.64;86.84
77288;BME280;66345;42.694;23.346;2023-05-14T07:21:29;96110.25;;;10.47;85.72
77288;BME280;66345;42.694;23.346;2023-05-14T07:23:54;96111.31;;;10.69;84.29
77288;BME280;66345;42.694;23.346;2023-05-14T07:26:19;96102.69;;;10.36;82.36
77288;BME280;66345;42.694;23.346;2023-05-14T07:28:45;96085.50;;;10.07;83.55
77288;BME280;66345;42.694;23.346;2023-05-14T07:31:10;96093.94;;;10.11;86.72
77288;BME280;66345;42.694;23.346;2023-05-14T07:33:37;96095.47;;;10.05;86.28
77288;BME280;66345;42.694;23.346;2023-05-14T07:36:02;96095.34;;;9.90;85.32
77288;BME280;66345;42.694;23.346;2023-05-14T07:38:28;96100.94;;;9.95;87.05
77288;BME280;66345;42.694;23.346;2023-05-14T07:40:53;96079.09;;;9.93;87.33
77288;BME280;66345;42.694;23.346;2023-05-14T07:43:19;96088.88;;;9.85;86.90
77288;BME280;66345;42.694;23.346;2023-05-14T07:45:44;96097.31;;;9.80;87.01
77288;BME280;66345;42.694;23.346;2023-05-14T07:48:10;96104.63;;;9.86;87.32
77288;BME280;66345;42.694;23.346;2023-05-14T07:50:36;96101.75;;;10.04;88.44
77288;BME280;66345;42.694;23.346;2023-05-14T07:53:02;96098.09;;;10.13;87.97
77288;BME280;66345;42.694;23.346;2023-05-14T07:55:27;96101.09;;;10.02;85.87
77288;BME280;66345;42.694;23.346;2023-05-14T07:57:53;96118.00;;;10.01;86.74
77288;BME280;66345;42.694;23.346;2023-05-14T08:00:18;96115.34;;;10.01;87.27
77288;BME280;66345;42.694;23.346;2023-05-14T08:02:43;96118.69;;;9.87;86.24
77288;BME280;66345;42.694;23.346;2023-05-14T08:05:09;96105.63;;;9.85;86.63
77288;BME280;66345;42.694;23.346;2023-05-14T08:07:36;96113.53;;;9.93;86.76
77288;BME280;66345;42.694;23.346;2023-05-14T08:10:01;96118.19;;;9.99;86.51
77288;BME280;66345;42.694;23.346;2023-05-14T08:12:26;96106.41;;;10.02;86.80
77288;BME280;66345;42.694;23.346;2023-05-14T08:14:54;96103.53;;;10.12;86.76
77288;BME280;66345;42.694;23.346;2023-05-14T08:17:20;96104.91;;;10.08;84.64
77288;BME280;66345;42.694;23.346;2023-05-14T08:19:46;96102.06;;;10.09;86.01
77288;BME280;66345;42.694;23.346;2023-05-14T08:22:11;96094.25;;;10.24;85.04
77288;BME280;66345;42.694;23.346;2023-05-14T08:24:37;96089.28;;;10.21;85.17
77288;BME280;66345;42.694;23.346;2023-05-14T08:27:03;96087.31;;;10.23;86.33
77288;BME280;66345;42.694;23.346;2023-05-14T08:29:29;96088.56;;;10.35;85.28
77288;BME280;66345;42.694;23.346;2023-05-14T08:31:55;96076.84;;;10.21;84.14
77288;BME280;66345;42.694;23.346;2023-05-14T08:34:21;96084.47;;;10.24;84.48
77288;BME280;66345;42.694;23.346;2023-05-14T08:36:47;96094.72;;;10.27;85.22
77288;BME280;66345;42.694;23.346;2023-05-14T08:39:12;96082.16;;;10.30;86.12
77288;BME280;66345;42.694;23.346;2023-05-14T08:41:39;96077.28;;;10.41;86.42
77288;BME280;66345;42.694;23.346;2023-05-14T08:44:11;96077.38;;;10.56;84.33
77288;BME280;66345;42.694;23.346;2023-05-14T08:46:37;96070.94;;;10.50;84.11
77288;BME280;66345;42.694;23.346;2023-05-14T08:51:43;96054.16;;;10.58;85.31
77288;BME280;66345;42.694;23.346;2023-05-14T08:54:14;96065.63;;;10.81;84.75
77288;BME280;66345;42.694;23.346;2023-05-14T08:56:43;96055.53;;;10.77;83.00
77288;BME280;66345;42.694;23.346;2023-05-14T08:59:09;96056.00;;;10.49;81.31
77288;BME280;66345;42.694;23.346;2023-05-14T09:01:36;96066.50;;;10.35;82.73
77288;BME280;66345;42.694;23.346;2023-05-14T09:04:04;96060.94;;;10.30;82.89
77288;BME280;66345;42.694;23.346;2023-05-14T09:06:34;96061.88;;;10.37;81.97
77288;BME280;66345;42.694;23.346;2023-05-14T09:09:00;96071.22;;;10.55;83.26
77288;BME280;66345;42.694;23.346;2023-05-14T09:11:26;96071.31;;;10.70;82.58
77288;BME280;66345;42.694;23.346;2023-05-14T09:13:51;96066.56;;;10.66;82.31
77288;BME280;66345;42.694;23.346;2023-05-14T09:16:19;96061.34;;;10.72;82.80
77288;BME280;66345;42.694;23.346;2023-05-14T09:18:46;96051.19;;;10.53;82.81
77288;BME280;66345;42.694;23.346;2023-05-14T09:21:13;96057.28;;;10.31;83.69
77288;BME280;66345;42.694;23.346;2023-05-14T09:23:41;96056.25;;;10.32;83.43
77288;BME280;66345;42.694;23.346;2023-05-14T09:26:08;96066.41;;;10.28;83.18
77288;BME280;66345;42.694;23.346;2023-05-14T09:28:34;96071.81;;;10.43;83.33
77288;BME280;66345;42.694;23.346;2023-05-14T09:31:01;96064.91;;;10.25;81.85
77288;BME280;66345;42.694;23.346;2023-05-14T09:33:27;96041.22;;;10.16;81.68
77288;BME280;66345;42.694;23.346;2023-05-14T09:35:58;96044.88;;;10.15;82.45
77288;BME280;66345;42.694;23.346;2023-05-14T09:38:31;96056.31;;;10.23;83.64
77288;BME280;66345;42.694;23.346;2023-05-14T09:40:57;96049.63;;;10.36;82.67
77288;BME280;66345;42.694;23.346;2023-05-14T09:43:25;96033.91;;;10.26;81.79
77288;BME280;66345;42.694;23.346;2023-05-14T09:45:51;96034.41;;;10.30;82.58
77288;BME280;66345;42.694;23.346;2023-05-14T09:48:17;96029.91;;;10.30;83.21
77288;BME280;66345;42.694;23.346;2023-05-14T09:50:44;96032.75;;;10.28;83.49
77288;BME280;66345;42.694;23.346;2023-05-14T09:53:10;96046.13;;;10.35;83.36
77288;BME280;66345;42.694;23.346;2023-05-14T09:55:36;96032.03;;;10.35;82.24
77288;BME280;66345;42.694;23.346;2023-05-14T09:58:02;96031.47;;;10.47;81.50
77288;BME280;66345;42.694;23.346;2023-05-14T10:00:30;96030.88;;;10.37;81.31
77288;BME280;66345;42.694;23.346;2023-05-14T10:02:58;96035.59;;;10.50;82.73
77288;BME280;66345;42.694;23.346;2023-05-14T10:05:23;96019.03;;;10.48;82.65
77288;BME280;66345;42.694;23.346;2023-05-14T10:07:52;96001.97;;;10.42;82.11
77288;BME280;66345;42.694;23.346;2023-05-14T10:10:23;96001.34;;;10.40;82.20
77288;BME280;66345;42.694;23.346;2023-05-14T10:12:52;96003.22;;;10.32;82.94
77288;BME280;66345;42.694;23.346;2023-05-14T10:15:24;96010.34;;;10.31;83.99
77288;BME280;66345;42.694;23.346;2023-05-14T10:17:55;96001.56;;;10.31;85.22
77288;BME280;66345;42.694;23.346;2023-05-14T10:20:22;95993.56;;;10.39;84.68
77288;BME280;66345;42.694;23.346;2023-05-14T10:22:49;95992.09;;;10.36;84.03
77288;BME280;66345;42.694;23.346;2023-05-14T10:25:15;95977.56;;;10.24;85.33
77288;BME280;66345;42.694;23.346;2023-05-14T10:27:41;95985.53;;;10.16;85.98
77288;BME280;66345;42.694;23.346;2023-05-14T10:30:11;96004.72;;;10.26;85.96
77288;BME280;66345;42.694;23.346;2023-05-14T10:32:39;96000.25;;;10.26;86.07
77288;BME280;66345;42.694;23.346;2023-05-14T10:35:19;96010.81;;;10.35;85.62
77288;BME280;66345;42.694;23.346;2023-05-14T10:37:50;96015.84;;;10.30;83.15
77288;BME280;66345;42.694;23.346;2023-05-14T10:40:15;96009.88;;;10.19;85.31
77288;BME280;66345;42.694;23.346;2023-05-14T10:42:45;96000.00;;;10.05;85.26
77288;BME280;66345;42.694;23.346;2023-05-14T10:45:14;95991.84;;;10.15;86.99
77288;BME280;66345;42.694;23.346;2023-05-14T10:47:45;95992.25;;;9.95;85.58
77288;BME280;66345;42.694;23.346;2023-05-14T10:50:13;95987.44;;;9.99;86.30
77288;BME280;66345;42.694;23.346;2023-05-14T10:52:42;95999.06;;;9.98;85.90
77288;BME280;66345;42.694;23.346;2023-05-14T10:55:12;95995.44;;;10.22;86.74
77288;BME280;66345;42.694;23.346;2023-05-14T10:57:42;95993.28;;;10.25;86.17
77288;BME280;66345;42.694;23.346;2023-05-14T11:00:08;95987.69;;;10.51;85.95
77288;BME280;66345;42.694;23.346;2023-05-14T11:02:36;95963.13;;;10.18;84.56
77288;BME280;66345;42.694;23.346;2023-05-14T11:05:06;95972.25;;;10.24;86.58
77288;BME280;66345;42.694;23.346;2023-05-14T11:07:48;95985.16;;;10.19;86.31
77288;BME280;66345;42.694;23.346;2023-05-14T11:10:16;95979.94;;;10.42;86.67
77288;BME280;66345;42.694;23.346;2023-05-14T11:12:46;95985.47;;;10.32;84.54
77288;BME280;66345;42.694;23.346;2023-05-14T11:15:16;95981.00;;;10.33;84.71
77288;BME280;66345;42.694;23.346;2023-05-14T11:17:43;95992.59;;;10.32;84.88
77288;BME280;66345;42.694;23.346;2023-05-14T11:20:10;95996.41;;;10.37;84.41
77288;BME280;66345;42.694;23.346;2023-05-14T11:22:37;95991.03;;;10.68;86.02
77288;BME280;66345;42.694;23.346;2023-05-14T11:25:03;95986.44;;;10.62;83.56
77288;BME280;66345;42.694;23.346;2023-05-14T11:27:30;95988.03;;;10.71;84.88
77288;BME280;66345;42.694;23.346;2023-05-14T11:29:56;95971.34;;;10.63;83.41
77288;BME280;66345;42.694;23.346;2023-05-14T11:32:22;95974.22;;;10.53;82.56
77288;BME280;66345;42.694;23.346;2023-05-14T11:34:48;95966.97;;;10.47;83.99
77288;BME280;66345;42.694;23.346;2023-05-14T11:37:15;95968.44;;;10.72;84.56
77288;BME280;66345;42.694;23.346;2023-05-14T11:39:52;95964.63;;;10.75;83.38
77288;BME280;66345;42.694;23.346;2023-05-14T11:42:18;95972.41;;;10.76;84.36
77288;BME280;66345;42.694;23.346;2023-05-14T11:44:49;95968.28;;;10.74;82.44
77288;BME280;66345;42.694;23.346;2023-05-14T11:47:16;95940.81;;;10.67;83.77
77288;BME280;66345;42.694;23.346;2023-05-14T11:49:43;95949.78;;;10.80;83.59
77288;BME280;66345;42.694;23.346;2023-05-14T11:52:10;95949.31;;;11.00;81.62
77288;BME280;66345;42.694;23.346;2023-05-14T11:54:38;95952.09;;;10.83;82.64
77288;BME280;66345;42.694;23.346;2023-05-14T11:57:24;95954.84;;;10.75;82.28
77288;BME280;66345;42.694;23.346;2023-05-14T11:59:56;95947.31;;;10.79;82.40
77288;BME280;66345;42.694;23.346;2023-05-14T12:02:22;95937.50;;;11.17;81.77
77288;BME280;66345;42.694;23.346;2023-05-14T12:04:52;95948.88;;;11.26;81.92
77288;BME280;66345;42.694;23.346;2023-05-14T12:07:17;95944.41;;;11.26;80.69
77288;BME280;66345;42.694;23.346;2023-05-14T12:09:47;95935.22;;;11.14;81.12
77288;BME280;66345;42.694;23.346;2023-05-14T12:12:19;95928.00;;;11.37;80.97
77288;BME280;66345;42.694;23.346;2023-05-14T12:14:45;95935.69;;;11.32;80.45
77288;BME280;66345;42.694;23.346;2023-05-14T12:17:19;95926.72;;;11.33;79.21
77288;BME280;66345;42.694;23.346;2023-05-14T12:19:49;95915.13;;;11.34;80.43
77288;BME280;66345;42.694;23.346;2023-05-14T12:22:16;95911.06;;;11.38;80.46
77288;BME280;66345;42.694;23.346;2023-05-14T12:24:53;95907.22;;;11.26;79.02
77288;BME280;66345;42.694;23.346;2023-05-14T12:27:22;95887.63;;;11.27;80.14
77288;BME280;66345;42.694;23.346;2023-05-14T12:29:49;95889.91;;;11.30;79.39
77288;BME280;66345;42.694;23.346;2023-05-14T12:32:17;95893.38;;;11.16;78.74
77288;BME280;66345;42.694;23.346;2023-05-14T12:34:45;95894.09;;;11.25;79.82
77288;BME280;66345;42.694;23.346;2023-05-14T12:37:11;95894.84;;;11.33;80.21
77288;BME280;66345;42.694;23.346;2023-05-14T12:39:36;95891.53;;;11.31;79.98
77288;BME280;66345;42.694;23.346;2023-05-14T12:42:02;95883.94;;;11.43;80.61
77288;BME280;66345;42.694;23.346;2023-05-14T12:44:27;95878.00;;;11.41;79.87
77288;BME280;66345;42.694;23.346;2023-05-14T12:46:53;95875.16;;;11.43;79.55
77288;BME280;66345;42.694;23.346;2023-05-14T12:49:20;95879.09;;;11.47;79.35
77288;BME280;66345;42.694;23.346;2023-05-14T12:51:45;95880.91;;;11.46;78.59
77288;BME280;66345;42.694;23.346;2023-05-14T12:54:11;95887.63;;;11.42;78.40
77288;BME280;66345;42.694;23.346;2023-05-14T12:56:37;95883.47;;;11.39;78.02
77288;BME280;66345;42.694;23.346;2023-05-14T12:59:03;95888.44;;;11.43;78.71
77288;BME280;66345;42.694;23.346;2023-05-14T13:01:28;95886.78;;;11.56;79.05
77288;BME280;66345;42.694;23.346;2023-05-14T13:03:54;95894.38;;;11.59;79.18
77288;BME280;66345;42.694;23.346;2023-05-14T13:06:20;95892.28;;;11.40;78.84
77288;BME280;66345;42.694;23.346;2023-05-14T13:08:46;95880.66;;;11.41;79.29
77288;BME280;66345;42.694;23.346;2023-05-14T13:11:13;95884.78;;;11.44;80.26
77288;BME280;66345;42.694;23.346;2023-05-14T13:13:38;95875.34;;;11.41;79.14
77288;BME280;66345;42.694;23.346;2023-05-14T13:16:04;95880.47;;;11.57;79.12
77288;BME280;66345;42.694;23.346;2023-05-14T13:18:29;95873.66;;;11.84;78.84